KTA weather

Karratha Airport
Karratha, Western Australia, Australia

Public forecast

Using degrees Celsius for public forecast. Weather courtesy of forecast.io.

METAR (pilot weather report)

Closest report is Barrow Island Airport, 77.3 nm (143.1 km) W. Retrieved 2018/04/24 06:00 UTC (28 minutes ago):

YBWX 240600Z AUTO 22014KT //// // ////// 32/20 Q1010

TAF (pilot weather forecast)

Closest forecast is Port Hedland International Airport, 106.1 nm (196.5 km) E. Retrieved 2018/04/24 06:37 UTC (0 seconds ago):

TAF YPPD 240509Z 2406/2506 35012KT CAVOK FM241200 30006KT CAVOK FM250300 36010KT CAVOK